Wingate, Indiana
Current Conditions -  °F | °C
As of 4:27 PM on Thursday 18 Dec 2014 (Local Time) from KLAF Reporting Station
Overcast Overcast  
Wind Chill: 19°   Ceiling: 1700
Heat Index: 26°   Visibility: 10mi
Dew Point: 20°   Wind: 6mph
Humidity: 78%   Direction: 320°NW
Pressure: 30.24"   Gusts: NA
Location:  40.17°N, 87.07°W
Report Text: KLAF 182127Z 32005KT 10SM BKN017 OVC055 M03/M07 A3024 RMK AO2 T10331067
Loading
Personal Weather Stations






























Interactive Weather Map New forecast layout! Learn more

10-Day Weather Forecast

Advertisements
Track Severe Weather on mobile